createdAt,value
2019-05-09T00:02:21.144Z,135.30
2019-05-09T00:04:48.222Z,135.90
2019-05-09T00:07:15.287Z,138.85
2019-05-09T00:09:44.082Z,137.10
2019-05-09T00:12:11.460Z,136.18
2019-05-09T00:14:38.496Z,135.28
2019-05-09T00:17:05.736Z,135.32
2019-05-09T00:19:33.545Z,137.10
2019-05-09T00:22:03.089Z,136.85
2019-05-09T00:24:29.621Z,136.22
2019-05-09T00:26:56.744Z,135.55
2019-05-09T00:29:30.445Z,136.10
2019-05-09T00:32:10.005Z,135.90
2019-05-09T00:34:46.988Z,137.57
2019-05-09T00:37:14.088Z,135.35
2019-05-09T00:39:42.884Z,134.95
2019-05-09T00:42:10.171Z,134.50
2019-05-09T00:44:39.336Z,135.18
2019-05-09T00:47:19.139Z,135.52
2019-05-09T00:49:46.223Z,134.85
2019-05-09T00:52:14.148Z,134.40
2019-05-09T00:54:43.684Z,135.93
2019-05-09T00:57:13.754Z,135.63
2019-05-09T00:59:40.898Z,134.63
2019-05-09T01:02:07.952Z,133.93
2019-05-09T01:04:35.326Z,135.00
2019-05-09T01:07:04.541Z,134.90
2019-05-09T01:09:33.409Z,134.10
2019-05-09T01:12:00.564Z,134.20
2019-05-09T01:14:27.915Z,134.37
2019-05-09T01:16:54.987Z,135.37
2019-05-09T01:19:23.299Z,135.07
2019-05-09T01:21:54.207Z,134.22
2019-05-09T01:24:23.247Z,135.30
2019-05-09T01:26:50.617Z,134.45
2019-05-09T01:29:17.888Z,133.85
2019-05-09T01:31:44.939Z,134.57
2019-05-09T01:34:18.958Z,134.12
2019-05-09T01:37:04.447Z,134.30
2019-05-09T01:39:33.636Z,134.70
2019-05-09T01:42:03.097Z,135.97
2019-05-09T01:44:30.265Z,134.20
2019-05-09T01:46:57.308Z,136.65
2019-05-09T01:49:24.397Z,136.82
2019-05-09T01:51:53.553Z,135.32
2019-05-09T01:54:23.696Z,135.48
2019-05-09T01:56:51.080Z,133.67
2019-05-09T01:59:20.790Z,134.45
2019-05-09T02:01:47.988Z,134.47
2019-05-09T02:04:15.431Z,133.70
2019-05-09T02:06:44.437Z,134.63
2019-05-09T02:09:13.877Z,133.65
2019-05-09T02:11:43.289Z,133.55
2019-05-09T02:14:13.526Z,134.27
2019-05-09T02:17:00.296Z,133.60
2019-05-09T02:19:33.658Z,134.87
2019-05-09T02:22:00.723Z,133.72
2019-05-09T02:24:27.743Z,134.57
2019-05-09T02:26:54.797Z,134.97
2019-05-09T02:29:23.173Z,133.90
2019-05-09T02:31:50.563Z,134.35
2019-05-09T02:34:17.626Z,134.70
2019-05-09T02:36:49.394Z,134.12
2019-05-09T02:39:18.633Z,134.60
2019-05-09T02:41:59.593Z,134.43
2019-05-09T02:44:13.784Z,134.12
2019-05-09T02:46:58.856Z,134.47
2019-05-09T02:49:28.451Z,133.90
2019-05-09T02:51:54.699Z,133.95
2019-05-09T02:54:22.064Z,133.82
2019-05-09T02:56:49.520Z,135.82
2019-05-09T02:59:24.683Z,136.12
2019-05-09T03:02:01.847Z,134.63
2019-05-09T03:04:30.345Z,134.25
2019-05-09T03:06:59.633Z,136.85
2019-05-09T03:09:30.504Z,135.30
2019-05-09T03:11:58.871Z,135.88
2019-05-09T03:14:28.619Z,137.57
2019-05-09T03:16:58.344Z,137.05
2019-05-09T03:19:24.461Z,138.68
2019-05-09T03:21:58.438Z,137.25
2019-05-09T03:24:28.571Z,135.12
2019-05-09T03:26:59.745Z,135.00
2019-05-09T03:29:40.295Z,135.95
2019-05-09T03:32:09.152Z,134.95
2019-05-09T03:34:37.596Z,135.03
2019-05-09T03:37:04.630Z,135.18
2019-05-09T03:39:31.709Z,134.10
2019-05-09T03:42:00.045Z,135.52
2019-05-09T03:44:28.292Z,134.82
2019-05-09T03:47:02.478Z,134.70
2019-05-09T03:49:29.504Z,134.43
2019-05-09T03:51:58.451Z,136.25
2019-05-09T03:54:28.269Z,137.60
2019-05-09T03:57:04.119Z,134.87
2019-05-09T03:59:31.184Z,133.93
2019-05-09T04:01:59.156Z,134.45
2019-05-09T04:04:28.108Z,134.72
2019-05-09T04:06:55.315Z,134.10
2019-05-09T04:09:22.421Z,134.87
2019-05-09T04:11:49.613Z,134.95
2019-05-09T04:14:21.566Z,133.82
2019-05-09T04:16:51.931Z,134.82
2019-05-09T04:19:19.212Z,134.52
2019-05-09T04:21:48.537Z,134.27
2019-05-09T04:24:17.767Z,134.80
2019-05-09T04:26:50.655Z,133.47
2019-05-09T04:31:57.664Z,134.25
2019-05-09T04:34:24.742Z,135.22
2019-05-09T04:36:51.783Z,135.20
2019-05-09T04:39:23.356Z,136.07
2019-05-09T04:41:48.678Z,135.52
2019-05-09T04:44:28.377Z,135.22
2019-05-09T04:47:01.698Z,134.25
2019-05-09T04:49:24.860Z,135.50
2019-05-09T04:51:51.973Z,134.95
2019-05-09T04:54:19.316Z,135.40
2019-05-09T04:57:27.886Z,137.03
2019-05-09T04:59:57.519Z,135.63
2019-05-09T05:02:39.328Z,137.25
2019-05-09T05:05:07.781Z,135.18
2019-05-09T05:07:37.472Z,137.82
2019-05-09T05:10:04.618Z,136.82
2019-05-09T05:12:31.648Z,135.90
2019-05-09T05:14:58.723Z,135.40
2019-05-09T05:17:28.350Z,136.47
2019-05-09T05:19:55.115Z,138.43
2019-05-09T05:22:38.717Z,138.47
2019-05-09T05:25:09.307Z,139.55
2019-05-09T05:27:38.234Z,139.22
2019-05-09T05:30:07.539Z,138.82
2019-05-09T05:32:54.468Z,137.77
2019-05-09T05:35:43.907Z,138.68
2019-05-09T05:38:11.294Z,137.20
2019-05-09T05:40:45.323Z,138.43
2019-05-09T05:43:08.743Z,138.80
2019-05-09T05:45:48.529Z,138.90
2019-05-09T05:48:19.771Z,140.55
2019-05-09T05:50:48.777Z,139.60
2019-05-09T05:53:18.090Z,139.35
2019-05-09T05:55:45.160Z,139.07
2019-05-09T05:58:12.256Z,139.77
2019-05-09T06:00:39.379Z,141.00
2019-05-09T06:03:08.764Z,141.12
2019-05-09T06:05:35.555Z,141.22
2019-05-09T06:08:02.620Z,140.32
2019-05-09T06:10:29.635Z,139.32
2019-05-09T06:12:57.506Z,141.20
2019-05-09T06:15:24.927Z,140.88
2019-05-09T06:17:51.985Z,140.95
2019-05-09T06:20:19.066Z,138.97
2019-05-09T06:22:47.816Z,138.32
2019-05-09T06:25:20.193Z,138.95
2019-05-09T06:27:48.061Z,140.47
2019-05-09T06:30:28.034Z,140.97
2019-05-09T06:32:54.952Z,138.12
2019-05-09T06:35:23.091Z,139.68
2019-05-09T06:37:50.476Z,137.30
2019-05-09T06:40:21.544Z,137.72
2019-05-09T06:42:49.027Z,136.68
2019-05-09T06:45:42.543Z,137.05
2019-05-09T06:48:10.170Z,137.45
2019-05-09T06:50:37.883Z,138.35
2019-05-09T06:53:07.808Z,138.55
2019-05-09T06:55:34.397Z,139.05
2019-05-09T06:58:21.108Z,140.30
2019-05-09T07:00:53.488Z,139.20
2019-05-09T07:03:23.814Z,137.20
2019-05-09T07:05:58.939Z,137.55
2019-05-09T07:08:34.692Z,138.72
2019-05-09T07:11:01.735Z,138.80
2019-05-09T07:13:31.789Z,139.03
2019-05-09T07:16:00.720Z,139.85
2019-05-09T07:18:27.807Z,137.62
2019-05-09T07:20:54.813Z,138.57
2019-05-09T07:23:21.859Z,138.88
2019-05-09T07:26:07.863Z,141.43
2019-05-09T07:28:37.515Z,137.37
2019-05-09T07:31:11.745Z,138.90
2019-05-09T07:34:08.554Z,138.85
2019-05-09T07:36:38.419Z,138.07
2019-05-09T07:39:08.850Z,138.52
2019-05-09T07:41:38.216Z,137.25
2019-05-09T07:44:04.803Z,138.52
2019-05-09T07:46:58.531Z,137.82
2019-05-09T07:49:28.854Z,136.90
2019-05-09T07:51:59.051Z,137.22
2019-05-09T07:54:29.341Z,137.62
2019-05-09T07:56:58.036Z,137.62
2019-05-09T07:59:27.377Z,138.88
2019-05-09T08:01:54.319Z,138.20
2019-05-09T08:04:21.398Z,138.62
2019-05-09T08:06:49.659Z,137.52
2019-05-09T08:09:18.648Z,137.05
2019-05-09T08:11:48.155Z,137.28
2019-05-09T08:14:17.428Z,137.92
2019-05-09T08:16:44.074Z,137.22
2019-05-09T08:19:11.368Z,137.10
2019-05-09T08:21:38.571Z,138.35
2019-05-09T08:24:07.904Z,138.95
2019-05-09T08:26:34.873Z,137.32
2019-05-09T08:29:02.355Z,137.37
2019-05-09T08:31:29.357Z,137.52
2019-05-09T08:33:59.290Z,137.07
2019-05-09T08:36:28.171Z,138.70
2019-05-09T08:38:58.594Z,137.70
2019-05-09T08:41:29.096Z,137.57
2019-05-09T08:43:57.559Z,136.55
2019-05-09T08:46:24.901Z,136.20
2019-05-09T08:48:52.287Z,137.77
2019-05-09T08:51:51.882Z,137.57
2019-05-09T08:54:29.443Z,138.07
2019-05-09T08:56:58.247Z,137.50
2019-05-09T08:59:27.599Z,139.57
2019-05-09T09:02:12.210Z,137.90
2019-05-09T09:04:25.067Z,138.75
2019-05-09T09:06:52.123Z,137.72
2019-05-09T09:09:19.287Z,136.72
2019-05-09T09:11:47.838Z,137.62
2019-05-09T09:14:15.150Z,138.28
2019-05-09T09:16:47.947Z,137.00
2019-05-09T09:19:18.754Z,138.12
2019-05-09T09:21:49.135Z,138.45
2019-05-09T09:24:17.581Z,137.28
2019-05-09T09:26:48.646Z,137.07
2019-05-09T09:29:28.459Z,136.77
2019-05-09T09:31:57.611Z,137.85
2019-05-09T09:34:27.136Z,137.25
2019-05-09T09:36:55.833Z,139.90
2019-05-09T09:39:44.796Z,139.40
2019-05-09T09:42:19.988Z,137.37
2019-05-09T09:44:48.226Z,138.88
2019-05-09T09:47:29.953Z,137.77
2019-05-09T09:50:00.703Z,139.85
2019-05-09T09:52:29.336Z,138.12
2019-05-09T09:54:58.198Z,137.40
2019-05-09T09:57:25.591Z,138.55
2019-05-09T09:59:58.372Z,139.30
2019-05-09T10:02:29.417Z,138.30
2019-05-09T10:04:58.345Z,137.88
2019-05-09T10:07:27.827Z,137.95
2019-05-09T10:09:55.570Z,138.35
2019-05-09T10:12:25.600Z,136.18
2019-05-09T10:15:01.492Z,138.43
2019-05-09T10:17:52.908Z,135.57
2019-05-09T10:20:31.198Z,136.15
2019-05-09T10:23:10.116Z,138.22
2019-05-09T10:25:33.742Z,136.30
2019-05-09T10:28:08.869Z,138.22
2019-05-09T10:30:48.365Z,137.68
2019-05-09T10:33:25.095Z,138.00
2019-05-09T10:36:04.419Z,138.75
2019-05-09T10:38:31.742Z,138.12
2019-05-09T10:41:02.509Z,138.10
2019-05-09T10:44:19.556Z,137.77
2019-05-09T10:47:14.088Z,136.82
2019-05-09T10:49:52.049Z,138.43
2019-05-09T10:52:21.286Z,137.52
2019-05-09T10:54:52.768Z,137.30
2019-05-09T10:57:30.885Z,138.00
2019-05-09T10:59:57.945Z,137.05
2019-05-09T11:02:29.680Z,138.20
2019-05-09T11:04:59.426Z,137.10
2019-05-09T11:07:29.977Z,138.77
2019-05-09T11:09:59.790Z,138.88
2019-05-09T11:12:33.994Z,139.32
2019-05-09T11:18:08.179Z,137.05
2019-05-09T11:20:45.446Z,139.70
2019-05-09T11:23:20.867Z,138.37
2019-05-09T11:26:20.926Z,138.70
2019-05-09T11:29:18.592Z,139.07
2019-05-09T11:31:52.722Z,138.30
2019-05-09T11:34:27.307Z,138.12
2019-05-09T11:37:02.927Z,139.03
2019-05-09T11:39:39.738Z,138.55
2019-05-09T11:42:20.725Z,138.28
2019-05-09T11:44:48.167Z,138.40
2019-05-09T11:47:28.475Z,138.07
2019-05-09T11:49:44.261Z,139.10
2019-05-09T11:52:11.705Z,139.95
2019-05-09T11:54:39.103Z,138.95
2019-05-09T11:57:09.571Z,141.85
2019-05-09T11:59:38.007Z,138.82
2019-05-09T12:02:05.505Z,137.45
2019-05-09T12:04:32.594Z,140.47
2019-05-09T12:06:59.708Z,138.97
2019-05-09T12:09:28.887Z,137.72
2019-05-09T12:11:59.255Z,137.57
2019-05-09T12:14:28.175Z,137.10
2019-05-09T12:16:55.836Z,137.62
2019-05-09T12:19:22.951Z,137.12
2019-05-09T12:21:50.307Z,137.22
2019-05-09T12:24:18.347Z,138.05
2019-05-09T12:26:48.209Z,138.97
2019-05-09T12:29:15.063Z,138.43
2019-05-09T12:31:43.294Z,137.57
2019-05-09T12:34:10.338Z,139.92
2019-05-09T12:36:39.743Z,139.68
2019-05-09T12:39:08.714Z,140.43
2019-05-09T12:41:38.455Z,139.70
2019-05-09T12:44:05.364Z,138.88
2019-05-09T12:46:34.394Z,138.90
2019-05-09T12:49:01.501Z,138.20
2019-05-09T12:51:29.704Z,138.22
2019-05-09T12:53:58.044Z,136.95
2019-05-09T12:56:25.343Z,136.90
2019-05-09T12:58:52.464Z,137.95
2019-05-09T13:01:19.722Z,137.28
2019-05-09T13:03:50.448Z,142.98
2019-05-09T13:06:19.937Z,136.75
2019-05-09T13:08:48.474Z,136.85
2019-05-09T13:11:15.621Z,137.88
2019-05-09T13:13:42.797Z,136.88
2019-05-09T13:16:20.535Z,137.37
2019-05-09T13:19:05.292Z,136.72
2019-05-09T13:21:33.227Z,138.52
2019-05-09T13:24:02.208Z,138.77
2019-05-09T13:26:30.694Z,137.95
2019-05-09T13:28:58.817Z,138.82
2019-05-09T13:31:29.358Z,136.52
2019-05-09T13:33:58.300Z,137.40
2019-05-09T13:36:28.534Z,139.10
2019-05-09T13:39:01.270Z,137.55
2019-05-09T13:41:24.176Z,135.95
2019-05-09T13:43:58.294Z,137.30
2019-05-09T13:46:20.861Z,137.30
2019-05-09T13:49:05.858Z,137.65
2019-05-09T13:51:18.349Z,136.90
2019-05-09T13:53:48.196Z,137.03
2019-05-09T13:56:15.028Z,137.45
2019-05-09T13:58:44.001Z,138.05
2019-05-09T14:01:11.105Z,137.85
2019-05-09T14:03:38.818Z,140.03
2019-05-09T14:06:09.094Z,139.47
2019-05-09T14:08:38.938Z,140.85
2019-05-09T14:11:09.676Z,139.55
2019-05-09T14:13:38.660Z,140.15
2019-05-09T14:16:19.047Z,138.97
2019-05-09T14:18:38.510Z,139.05
2019-05-09T14:21:07.698Z,140.68
2019-05-09T14:23:37.398Z,140.07
2019-05-09T14:26:03.968Z,139.82
2019-05-09T14:28:31.028Z,142.05
2019-05-09T14:30:59.510Z,141.68
2019-05-09T14:33:29.618Z,142.22
2019-05-09T14:35:56.754Z,143.52
2019-05-09T14:38:23.850Z,144.65
2019-05-09T14:40:50.966Z,143.07
2019-05-09T14:43:18.609Z,142.07
2019-05-09T14:45:48.344Z,142.37
2019-05-09T14:48:15.388Z,139.70
2019-05-09T14:50:42.488Z,140.60
2019-05-09T14:53:09.866Z,139.28
2019-05-09T14:55:39.147Z,138.77
2019-05-09T14:58:07.830Z,141.22
2019-05-09T15:00:35.039Z,140.15
2019-05-09T15:03:02.384Z,142.13
2019-05-09T15:05:29.468Z,139.70
2019-05-09T15:07:59.245Z,140.25
2019-05-09T15:10:25.615Z,138.28
2019-05-09T15:12:52.668Z,140.43
2019-05-09T15:15:21.012Z,139.15
2019-05-09T15:17:49.219Z,136.88
2019-05-09T15:20:17.971Z,137.32
2019-05-09T15:22:47.711Z,138.82
2019-05-09T15:25:19.106Z,137.40
2019-05-09T15:27:47.533Z,139.85
2019-05-09T15:30:14.483Z,138.12
2019-05-09T15:32:43.421Z,139.25
2019-05-09T15:35:10.601Z,138.95
2019-05-09T15:37:38.668Z,139.62
2019-05-09T15:40:08.752Z,139.47
2019-05-09T15:42:38.877Z,137.28
2019-05-09T15:45:07.707Z,138.22
2019-05-09T15:47:37.648Z,139.75
2019-05-09T15:50:16.653Z,140.65
2019-05-09T15:52:38.066Z,138.30
2019-05-09T15:55:09.544Z,139.97
2019-05-09T15:57:37.835Z,139.03
2019-05-09T16:00:08.231Z,139.07
2019-05-09T16:02:35.478Z,139.00
2019-05-09T16:05:02.919Z,140.50
2019-05-09T16:07:30.257Z,139.65
2019-05-09T16:09:57.997Z,140.03
2019-05-09T16:12:27.581Z,141.00
2019-05-09T16:15:09.331Z,140.75
2019-05-09T16:17:48.733Z,139.57
2019-05-09T16:20:22.943Z,138.52
2019-05-09T16:22:48.230Z,138.20
2019-05-09T16:25:15.130Z,139.18
2019-05-09T16:27:42.478Z,138.77
2019-05-09T16:30:09.945Z,140.92
2019-05-09T16:32:37.786Z,140.57
2019-05-09T16:35:07.743Z,138.32
2019-05-09T16:37:56.371Z,139.37
2019-05-09T16:40:05.299Z,139.77
2019-05-09T16:42:32.356Z,138.97
2019-05-09T16:44:59.554Z,139.32
2019-05-09T16:47:28.477Z,141.75
2019-05-09T16:49:57.902Z,141.85
2019-05-09T16:52:24.727Z,141.37
2019-05-09T16:55:02.664Z,143.02
2019-05-09T16:57:29.854Z,142.87
2019-05-09T16:59:56.896Z,142.22
2019-05-09T17:02:25.134Z,143.07
2019-05-09T17:04:52.410Z,141.37
2019-05-09T17:07:19.519Z,140.88
2019-05-09T17:09:48.479Z,140.05
2019-05-09T17:12:15.828Z,139.92
2019-05-09T17:14:44.059Z,140.55
2019-05-09T17:17:11.148Z,141.53
2019-05-09T17:19:38.326Z,141.12
2019-05-09T17:22:18.714Z,140.77
2019-05-09T17:24:48.449Z,141.77
2019-05-09T17:27:18.205Z,141.07
2019-05-09T17:29:47.739Z,140.85
2019-05-09T17:32:14.154Z,143.15
2019-05-09T17:34:42.526Z,139.03
2019-05-09T17:37:10.450Z,139.43
2019-05-09T17:39:44.284Z,138.52
2019-05-09T17:42:11.488Z,138.55
2019-05-09T17:44:40.354Z,138.70
2019-05-09T17:47:08.508Z,137.43
2019-05-09T17:49:40.228Z,139.65
2019-05-09T17:52:13.308Z,139.22
2019-05-09T17:54:40.694Z,141.18
2019-05-09T17:57:08.892Z,140.50
2019-05-09T17:59:36.087Z,140.80
2019-05-09T18:02:05.322Z,139.35
2019-05-09T18:04:32.714Z,141.12
2019-05-09T18:06:59.916Z,142.82
2019-05-09T18:09:28.572Z,140.92
2019-05-09T18:11:57.901Z,140.77
2019-05-09T18:14:27.999Z,140.73
2019-05-09T18:16:58.345Z,139.07
2019-05-09T18:19:30.991Z,140.10
2019-05-09T18:21:58.388Z,138.82
2019-05-09T18:24:25.557Z,141.45
2019-05-09T18:26:52.673Z,140.40
2019-05-09T18:29:22.185Z,143.15
2019-05-09T18:32:07.726Z,138.47
2019-05-09T18:34:37.872Z,138.57
2019-05-09T18:37:04.751Z,139.18
2019-05-09T18:39:33.082Z,138.07
2019-05-09T18:42:02.684Z,140.65
2019-05-09T18:44:30.100Z,137.90
2019-05-09T18:46:57.797Z,139.03
2019-05-09T18:49:25.357Z,140.00
2019-05-09T18:52:03.258Z,141.10
2019-05-09T18:54:21.749Z,141.32
2019-05-09T18:56:48.831Z,140.88
2019-05-09T18:59:15.915Z,139.32
2019-05-09T19:01:43.561Z,138.50
2019-05-09T19:04:10.624Z,139.03
2019-05-09T19:06:39.885Z,137.62
2019-05-09T19:09:07.365Z,138.28
2019-05-09T19:11:34.687Z,137.80
2019-05-09T19:14:02.972Z,138.18
2019-05-09T19:16:46.077Z,138.05
2019-05-09T19:19:19.594Z,138.45
2019-05-09T19:21:50.343Z,137.92
2019-05-09T19:24:17.521Z,137.52
2019-05-09T19:26:49.630Z,138.35
2019-05-09T19:29:19.668Z,139.22
2019-05-09T19:31:52.264Z,137.90
2019-05-09T19:34:21.561Z,138.32
2019-05-09T19:36:52.896Z,138.62
2019-05-09T19:39:24.936Z,139.65
2019-05-09T19:41:54.035Z,138.68
2019-05-09T19:44:22.769Z,138.03
2019-05-09T19:46:50.191Z,138.20
2019-05-09T19:49:19.181Z,138.50
2019-05-09T19:51:46.808Z,137.25
2019-05-09T19:54:13.983Z,136.92
2019-05-09T19:56:42.915Z,137.57
2019-05-09T19:59:10.194Z,139.82
2019-05-09T20:01:38.825Z,138.37
2019-05-09T20:04:05.924Z,138.37
2019-05-09T20:06:33.102Z,138.07
2019-05-09T20:09:02.481Z,137.37
2019-05-09T20:11:55.714Z,139.82
2019-05-09T20:14:26.370Z,138.07
2019-05-09T20:16:55.888Z,136.77
2019-05-09T20:19:23.479Z,137.68
2019-05-09T20:21:50.667Z,136.52
2019-05-09T20:24:17.930Z,137.52
2019-05-09T20:26:45.390Z,139.07
2019-05-09T20:29:16.638Z,136.97
2019-05-09T20:31:45.631Z,137.68
2019-05-09T20:34:12.685Z,138.03
2019-05-09T20:36:41.023Z,137.07
2019-05-09T20:39:08.144Z,138.68
2019-05-09T20:41:40.641Z,139.12
2019-05-09T20:44:07.765Z,137.65
2019-05-09T20:46:34.928Z,136.68
2019-05-09T20:49:02.142Z,137.50
2019-05-09T20:51:29.401Z,136.68
2019-05-09T20:53:56.577Z,136.25
2019-05-09T20:56:23.630Z,137.18
2019-05-09T20:58:53.075Z,137.37
2019-05-09T21:01:22.280Z,137.12
2019-05-09T21:04:03.036Z,140.68
2019-05-09T21:06:30.224Z,137.90
2019-05-09T21:08:57.350Z,136.65
2019-05-09T21:11:24.659Z,138.15
2019-05-09T21:13:51.804Z,137.35
2019-05-09T21:16:19.138Z,138.12
2019-05-09T21:18:47.746Z,137.62
2019-05-09T21:21:14.873Z,137.10
2019-05-09T21:23:42.248Z,136.88
2019-05-09T21:26:09.382Z,137.52
2019-05-09T21:28:36.453Z,136.62
2019-05-09T21:31:03.595Z,136.68
2019-05-09T21:33:30.675Z,137.07
2019-05-09T21:35:57.852Z,137.30
2019-05-09T21:38:26.201Z,134.75
2019-05-09T21:40:53.398Z,136.50
2019-05-09T21:43:20.759Z,136.30
2019-05-09T21:45:48.041Z,135.68
2019-05-09T21:48:15.114Z,135.90
2019-05-09T21:50:42.174Z,136.18
2019-05-09T21:53:09.327Z,135.50
2019-05-09T21:55:38.415Z,135.00
2019-05-09T21:58:05.540Z,136.05
2019-05-09T22:00:36.439Z,136.15
2019-05-09T22:03:06.172Z,136.65
2019-05-09T22:05:33.337Z,136.88
2019-05-09T22:08:00.519Z,136.77
2019-05-09T22:10:27.589Z,136.50
2019-05-09T22:12:55.094Z,136.37
2019-05-09T22:15:22.310Z,136.60
2019-05-09T22:17:49.518Z,136.70
2019-05-09T22:20:16.683Z,136.37
2019-05-09T22:22:44.135Z,137.05
2019-05-09T22:25:11.788Z,136.97
2019-05-09T22:27:39.412Z,137.88
2019-05-09T22:30:08.801Z,137.60
2019-05-09T22:32:38.766Z,136.43
2019-05-09T22:35:06.315Z,138.35
2019-05-09T22:37:33.706Z,137.10
2019-05-09T22:40:00.769Z,136.92
2019-05-09T22:42:27.977Z,137.50
2019-05-09T22:44:55.070Z,137.10
2019-05-09T22:47:22.334Z,136.65
2019-05-09T22:49:52.649Z,136.47
2019-05-09T22:52:20.216Z,135.95
2019-05-09T22:54:48.630Z,138.03
2019-05-09T22:57:17.546Z,137.00
2019-05-09T22:59:44.633Z,137.45
2019-05-09T23:02:11.705Z,136.43
2019-05-09T23:04:38.815Z,138.03
2019-05-09T23:07:07.330Z,137.50
2019-05-09T23:09:35.563Z,136.43
2019-05-09T23:12:04.423Z,136.52
2019-05-09T23:14:31.687Z,135.97
2019-05-09T23:16:58.892Z,136.92
2019-05-09T23:19:25.987Z,137.00
2019-05-09T23:21:53.941Z,136.65
2019-05-09T23:24:28.594Z,137.60
2019-05-09T23:26:51.282Z,137.30
2019-05-09T23:29:18.390Z,138.10
2019-05-09T23:31:54.984Z,137.88
2019-05-09T23:34:22.124Z,138.32
2019-05-09T23:36:49.163Z,137.88
2019-05-09T23:39:21.654Z,136.30
2019-05-09T23:41:48.876Z,136.70
2019-05-09T23:44:15.943Z,136.40
2019-05-09T23:46:43.098Z,136.10
2019-05-09T23:49:11.240Z,136.68
2019-05-09T23:51:46.777Z,136.30
2019-05-09T23:54:45.236Z,136.52
2019-05-09T23:57:22.039Z,137.30
